HOURLY OBS INDEX

090

West Coast

AIREYS INLET

Site: 090180
Alt: 105.0m
41km SW of GEELONG


  Time     Wind        Temp  DP   Baro     Rain since   Rain past  Vis(m), Cloud(base in m), Weather
  local        km/h                         9am  last   hr   10m    
Fri 22:00  WNW 22/ 33   6.4  2.5  ------   16.6   0.0   0.0   0.0   ----- 
Fri 22:30  WNW 24/ 35   6.0  2.5  ------   16.6   0.0   0.0   0.0   ----- 
Fri 23:00   NW 24/ 35   5.8  3.0  ------   16.6   0.0   0.0   0.0   ----- 
Fri 23:30  WNW 22/ 32   5.8  3.3  ------   16.6   0.0   0.0   0.0   ----- 
Sat 00:00  WNW 24/ 41   6.0  3.7  ------   16.6   0.0   0.0   0.0   ----- 
Sat 00:30  WNW 22/ 30   5.8  4.6  ------   16.8   0.2   0.2   0.0   ----- 
Sat 01:00  WNW 15/ 22   5.7  4.8  ------   17.8   1.0   1.2   0.2   ----- 
Sat 01:30  WSW 26/ 37   6.9  5.5  ------   18.2   0.4   1.4   0.2   ----- 
Sat 02:00   SW 32/ 50   7.0  5.9  ------   19.8   1.6   2.0   0.6   ----- 
Sat 02:01   SW 30/ 50   7.0  5.9  ------   20.0   0.2  ----   0.6   ----- 
Sat 02:30   SW 43/ 61   7.5  6.6  ------   23.2   3.2   5.0   2.2   ----- 
Sat 03:00   SW 43/ 59   8.6  7.4  ------   24.0   0.8   4.2   0.0   ----- 
Sat 03:01   SW 43/ 70   8.6  7.2  ------   24.0   0.0  ----   0.0   ----- 
Sat 03:30   SW 41/ 63   8.0  6.6  ------   24.8   0.0   0.0   0.2   ----- 

CAPE NELSON LIGHTHOUSE

Site: 090184
Alt: 45.4m
11km SSW of PORTLAND


  Time     Wind        Temp  DP   Baro     Rain since   Rain past  Vis(m), Cloud(base in m), Weather
  local        km/h                         9am  last   hr   10m    
Fri 22:00    S 56/ 78   9.2  6.5  1009.9    2.0   0.0   0.0   0.0   ----- 
Fri 22:06    S 35/ 50   9.1  6.2  1009.6    2.0   0.0  ----   0.0   ----- 
Fri 22:07  SSE 35/ 56   9.2  6.1  1009.7    2.0   0.0  ----   0.0   ----- 
Fri 22:11    S 58/ 72   9.2  6.1  1010.1    2.0   0.0  ----   0.0   ----- 
Fri 22:17    S 58/ 78   9.4  6.5  1010.1    2.0   0.0  ----   0.0   ----- 
Fri 22:30    S 52/ 67   8.7  6.3  1010.4    2.0   0.0   0.0   0.0   ----- 
Fri 22:40    S 45/ 67   8.9  6.9  1010.6    2.0   0.0  ----   0.0   ----- 
Fri 23:00    S 41/ 65   9.0  7.6  1010.5    2.6   0.6   0.6   0.2   ----- 
Fri 23:30  SSE 37/ 63   9.2  4.8  1010.9    2.6   0.0   0.6   0.0   ----- 
Sat 00:00  SSE 37/ 59   9.5  4.9  1010.9    2.6   0.0   0.0   0.0   ----- 
Sat 00:30    S 39/ 63   9.3  3.3  1011.4    2.6   0.0   0.0   0.0   ----- 
Sat 01:00    S 43/ 61   9.4  3.2  1011.8    2.6   0.0   0.0   0.0   ----- 
Sat 01:20   SE 20/ 30   9.5  4.7  1011.7    2.6   0.0  ----   0.0   ----- 
Sat 01:22    S 41/ 56   9.5  4.9  1011.9    2.6   0.0  ----   0.0   ----- 
Sat 01:26    S 41/ 59   9.5  4.3  1011.8    2.6   0.0  ----   0.0   ----- 
Sat 01:30    S 37/ 59   9.4  4.4  1011.9    2.6   0.0   0.0   0.0   ----- 
Sat 02:00  SSE 32/ 50   9.4  3.6  1012.1    2.6   0.0   0.0   0.0   ----- 
Sat 02:30  SSE 28/ 41   9.6  4.0  1011.9    2.6   0.0   0.0   0.0   ----- 
Sat 02:50   SE 32/ 56   9.1  4.7  1011.7    2.6   0.0  ----   0.0   ----- 
Sat 03:00  SSE 32/ 58   8.0  3.8  1012.6    2.6   0.0   0.0   0.0   ----- 
Sat 03:30  SSE 30/ 46   8.8  4.4  1012.1    2.6   0.0   0.0   0.0   ----- 

CAPE OTWAY LIGHTHOUSE

Site: 090015
Alt: 82.0m
58km S of COLAC


  Time     Wind        Temp  DP   Baro     Rain since   Rain past  Vis(m), Cloud(base in m), Weather
  local        km/h                         9am  last   hr   10m    
Fri 22:00  WSW 30/ 41  10.3  3.6  1005.5    5.6   0.0   0.0   0.0   ----- 
Fri 22:30  WSW 28/ 43  10.5  4.4  1005.4    5.6   0.0   0.0   0.0   ----- 
Fri 22:34    W 32/ 50  10.4  4.8  1005.4    5.6   0.0  ----   0.0   ----- 
Fri 23:00  WSW 32/ 45   9.4  4.8  1005.5    5.8   0.2   0.2   0.0   ----- 
Fri 23:02  WSW 32/ 56   9.7  5.3  1005.6    5.8   0.0  ----   0.0   ----- 
Fri 23:30   SW 48/ 69   9.4  6.5  1005.7    6.2   0.4   0.6   0.0   ----- 
Sat 00:00  SSW 41/ 58   8.6  6.6  1006.2    7.2   1.0   1.4   0.2   ----- 
Sat 00:04  SSW 41/ 61   9.0  7.0  1006.2    7.2   0.0  ----   0.2   ----- 
Sat 00:30  SSW 46/ 61   9.3  6.9  1006.3    7.8   0.6   1.6   0.0   ----- 
Sat 00:32  SSW 46/ 65   9.4  7.0  1006.3    7.8   0.0  ----   0.0   ----- 
Sat 01:00  SSW 45/ 61   9.7  6.8  1006.6    7.8   0.0   0.6   0.0   ----- 
Sat 01:03  SSW 45/ 67   9.7  6.8  1006.6    7.8   0.0  ----   0.0   ----- 
Sat 01:30  SSW 54/ 72  10.0  6.9  1006.7    8.0   0.2   0.2   0.0   ----- 
Sat 02:00  SSW 54/ 74   9.3  6.6  1007.4    8.2   0.2   0.4   0.0   ----- 
Sat 02:30  SSW 56/ 74   9.2  6.5  1007.8    8.4   0.2   0.4   0.0   ----- 
Sat 03:00  SSW 54/ 76   9.6  6.5  1008.1    8.4   0.0   0.2   0.0   ----- 
Sat 03:30   SW 52/ 72   9.7  5.3  1008.5    8.4   0.0   0.0   0.0   ----- 

CASTERTON

Site: 090182
Alt: 130.6m
63km WNW of HAMILTON


  Time     Wind        Temp  DP   Baro     Rain since   Rain past  Vis(m), Cloud(base in m), Weather
  local        km/h                         9am  last   hr   10m    
Fri 22:00   SW 26/ 35   6.2  6.1  1010.8    6.4   0.0   1.6   0.0   ----- 
Fri 22:30  WSW 17/ 20   6.2  6.1  1011.0    6.6   0.2   1.2   0.0   ----- 
Fri 23:00   SW 13/ 20   6.3  6.2  1011.3    6.6   0.0   0.2   0.0   ----- 
Fri 23:30  WSW 13/ 19   6.2  6.1  1011.6    6.6   0.0   0.0   0.0   ----- 
Sat 00:00    W 13/ 17   5.6  5.5  1011.7    6.6   0.0   0.0   0.0   ----- 
Sat 00:30  WSW 15/ 19   5.8  5.7  1012.2    6.6   0.0   0.0   0.0   ----- 
Sat 01:00   SW 24/ 45   6.6  6.0  1012.4    6.8   0.2   0.2   0.0   ----- 
Sat 01:30  WSW 13/ 17   5.8  5.7  1012.8    6.8   0.0   0.2   0.0   ----- 
Sat 02:00   SW 17/ 30   6.1  6.0  1012.9    6.8   0.0   0.0   0.0   ----- 
Sat 02:30  WSW 17/ 22   5.5  5.4  1013.0    6.8   0.0   0.0   0.0   ----- 
Sat 03:00  WSW 15/ 19   5.3  5.2  1013.0    7.0   0.2   0.2   0.0   ----- 
Sat 03:30    W 17/ 20   5.0  4.9  1013.1    7.0   0.0   0.0   0.0   ----- 

COLAC (MOUNT GELLIBRAND)

Site: 090035
Alt: 261.0m
22km ENE of COLAC


  Time     Wind        Temp  DP   Baro     Rain since   Rain past  Vis(m), Cloud(base in m), Weather
  local        km/h                         9am  last   hr   10m    
Fri 22:00  WNW 28/ 39   4.2  4.2  1005.8    8.4   0.0   0.0   0.0   ----- 
Fri 22:30  WNW 33/ 39   4.2  4.2  1005.9    8.4   0.0   0.0   0.0   ----- 
Fri 23:00  WNW 32/ 37   3.8  3.8  1005.9    8.4   0.0   0.0   0.0   ----- 
Fri 23:30  WNW 35/ 45   3.7  3.7  1005.8    8.4   0.0   0.0   0.0   ----- 
Sat 00:00  WNW 30/ 41   3.7  3.7  1006.0    8.4   0.0   0.0   0.0   ----- 
Sat 00:30  WNW 33/ 39   4.2  4.2  1006.1    8.4   0.0   0.0   0.0   ----- 
Sat 01:00    W 28/ 35   5.0  5.0  1006.1    8.8   0.4   0.4   0.0   ----- 
Sat 01:30    W 24/ 33   5.6  5.6  1006.4    8.8   0.0   0.4   0.0   ----- 
Sat 02:00  WSW 28/ 39   6.0  6.0  1006.7    9.0   0.2   0.2   0.2   ----- 
Sat 02:30  WSW 33/ 45   6.1  6.1  1006.7    9.4   0.4   0.6   0.2   ----- 
Sat 03:00  WSW 35/ 45   6.3  6.3  1007.0   10.0   0.6   1.0   0.4   ----- 
Sat 03:30  WSW 28/ 37   6.6  6.6  1007.4   10.8   0.0   0.0   0.2   ----- 

DARTMOOR

Site: 090194
Alt: 51.0m
55km NNW of PORTLAND


  Time     Wind        Temp  DP   Baro     Rain since   Rain past  Vis(m), Cloud(base in m), Weather
  local        km/h                         9am  last   hr   10m    
Fri 22:00  SSW 30/ 46   7.0  6.6  1011.3    6.0   0.0   1.0   0.4   ----- 
Fri 22:05  SSW 28/ 46   7.2  6.8  1011.1    6.2   0.2  ----   0.6   ----- 
Fri 22:30  SSW 20/ 35   7.5  7.1  1011.5    7.8   1.6   2.6   0.2   ----- 
Fri 23:00   SW 17/ 26   7.5  7.1  1011.9    8.0   0.2   2.0   0.0   ----- 
Fri 23:30   SW 19/ 30   7.5  6.0  1012.1    8.0   0.0   0.2   0.0   ----- 
Sat 00:00  SSW 15/ 28   7.7  5.0  1012.3    8.0   0.0   0.0   0.0   ----- 
Sat 00:30   SW 15/ 24   7.7  5.7  1012.6    8.0   0.0   0.0   0.0   ----- 
Sat 01:00  SSW 11/ 20   7.3  5.4  1012.9    8.0   0.0   0.0   0.0   ----- 
Sat 01:30  SSW 15/ 22   7.6  5.2  1013.1    8.0   0.0   0.0   0.0   ----- 
Sat 02:00   SW 17/ 26   7.2  6.1  1013.5    8.2   0.2   0.2   0.2   ----- 
Sat 02:30   SW 17/ 28   7.2  5.7  1013.5    8.2   0.0   0.2   0.0   ----- 
Sat 03:00   SW 22/ 43   7.1  4.1  1013.5    8.2   0.0   0.0   0.0   ----- 
Sat 03:30   SW 13/ 22   6.6  5.2  1013.4    8.4   0.0   0.0   0.0   ----- 

HAMILTON AIRPORT

Site: 090173
Alt: 241.1m
11km NNE of HAMILTON


  Time     Wind        Temp  DP   Baro     Rain since   Rain past  Vis(m), Cloud(base in m), Weather
  local        km/h                         9am  last   hr   10m    
Fri 22:00   SW 24/ 32   5.1  4.2  1009.5    7.2   0.4   1.0   0.2   10000|SC 480 SC 690 BR 930 
Fri 22:25  WSW 22/ 30   5.2  4.3  1010.0    7.4   0.2  ----   0.2   10000|BR 390 BR 810 BR3150 
Fri 22:30  WSW 22/ 30   5.2  4.3  1010.1    8.0   0.6   1.6   0.8    5000|BR 390 BR 810 BR3150 
Fri 22:46  WSW 24/ 35   5.1  4.2  1010.1    8.4   0.4  ----   0.2   10000|SC 330 BR 630 OC 750 
Fri 22:53  WSW 22/ 32   5.1  4.4  1010.0    8.8   0.4  ----   0.6    5000|SC 330 BR 720 OC 960 
Fri 23:00  WSW 22/ 32   5.2  4.5  1010.1    9.0   0.2   1.8   0.2    7000|SC 360 BR 600 OC 840 
Fri 23:05  WSW 24/ 35   5.3  4.6  1010.1    9.0   0.0  ----   0.0   10000|SC 360 SC 540 BR 720 
Fri 23:28  WSW 20/ 28   5.6  5.0  1010.3    9.4   0.4  ----   0.0   10000|SC 210 BR 330 BR 480 
Fri 23:30  WSW 20/ 28   5.6  5.0  1010.3    9.4   0.0   1.4   0.0   10000|SC 210 BR 330 BR 480 
Fri 23:45  WSW 22/ 28   5.7  5.1  1010.6   10.4   1.0  ----   0.8    5000|BR 270 OC 390 
Sat 00:00   SW 28/ 41   5.9  5.3  1010.7   10.8   0.4   1.8   0.0   10000|BR 270 BR 390 OC 510 
Sat 00:04   SW 26/ 35   5.9  5.3  1010.9   10.8   0.0  ----   0.0   10000|BR 270 BR 390 OC 510 
Sat 00:30   SW 24/ 33   5.7  5.1  1011.1   10.8   0.0   1.4   0.0   10000|SC 270 BR 420 OC 930 
Sat 00:47   SW 26/ 35   5.7  5.1  1011.1   10.8   0.0  ----   0.0   10000|SC 330 SC 810 BR1080 
Sat 01:00  WSW 24/ 32   5.4  4.7  1011.2   10.8   0.0   0.0   0.0   10000|SC 780 SC1200 BR1860 
Sat 01:30  WSW 22/ 28   5.2  4.5  1011.6   10.8   0.0   0.0   0.0   10000|SC1380 SC3000 
Sat 02:00  WSW 22/ 28   4.8  3.9  1012.0   10.8   0.0   0.0   0.0   10000|SC1440 
Sat 02:30  WSW 19/ 28   4.6  3.4  1012.0   10.8   0.0   0.0   0.0   10000|SC1200 SC1380 
Sat 03:00  WSW 17/ 20   4.2  2.9  1012.1   10.8   0.0   0.0   0.0   10000 
Sat 03:30  WSW 20/ 26   5.1  3.6  1012.4   10.8   0.0   0.0   0.0   10000|SC 720 BR 960 BR1260 

MORTLAKE RACECOURSE

Site: 090176
Alt: 130.0m
43km NE of WARRNAMBOOL


  Time     Wind        Temp  DP   Baro     Rain since   Rain past  Vis(m), Cloud(base in m), Weather
  local        km/h                         9am  last   hr   10m    
Fri 22:00  WNW 17/ 22   4.2  4.2  1007.9    7.2   0.0   0.0   0.0   ----- 
Fri 22:30  WNW 17/ 24   4.9  4.9  1008.1    7.2   0.0   0.0   0.0   ----- 
Fri 23:00    W 17/ 30   5.5  5.5  1008.2    7.2   0.0   0.0   0.0   ----- 
Fri 23:30  WSW 19/ 28   6.4  6.4  1008.4    7.6   0.4   0.4   0.4   ----- 
Sat 00:00   SW 20/ 30   7.1  7.1  1008.8    8.0   0.4   0.8   0.2   ----- 
Sat 00:30  SSW 22/ 33   7.0  7.0  1009.3    9.2   1.2   1.6   0.8   ----- 
Sat 01:00   SW 24/ 37   6.9  6.9  1009.4   11.6   2.4   3.6   0.2   ----- 
Sat 01:30   SW 26/ 33   6.8  6.8  1009.7   13.2   1.6   4.0   0.4   ----- 
Sat 02:00   SW 26/ 37   7.2  7.2  1010.0   13.2   0.0   1.6   0.0   ----- 
Sat 02:30   SW 32/ 43   7.4  6.2  1010.3   13.2   0.0   0.0   0.0   ----- 
Sat 02:35   SW 35/ 56   7.3  5.9  1010.3   13.2   0.0  ----   0.0   ----- 
Sat 03:00   SW 19/ 28   6.9  5.7  1010.4   13.2   0.0   0.0   0.0   ----- 
Sat 03:30  SSW 20/ 28   6.8  5.0  1010.6   13.2   0.0   0.0   0.0   ----- 

PORT FAIRY AWS

Site: 090175
Alt: 10.0m
22km E of WARRNAMBOOL


  Time     Wind        Temp  DP   Baro     Rain since   Rain past  Vis(m), Cloud(base in m), Weather
  local        km/h                         9am  last   hr   10m    
Fri 22:00   SW 32/ 50   9.3  6.7  1008.2    1.6   0.0   0.4   0.0   ----- 
Fri 22:30  SSW 45/ 61  10.0  7.6  1008.7    1.6   0.0   0.0   0.0   ----- 
Fri 22:52  SSW 43/ 63   9.8  8.4  1008.9    2.2   0.6  ----   0.6   ----- 
Fri 23:00  SSW 46/ 67   9.4  8.0  1009.1    2.2   0.0   0.6   0.0   ----- 
Fri 23:30  SSW 45/ 63   9.1  6.5  1009.4    2.2   0.0   0.6   0.0   ----- 
Fri 23:33  SSW 43/ 63   9.4  7.2  1009.5    2.2   0.0  ----   0.0   ----- 
Fri 23:57    S 32/ 45   8.8  8.0  1009.9    3.6   1.4  ----   0.6   ----- 
Sat 00:00    S 30/ 45   8.6  7.8  1009.9    3.6   0.0   1.4   0.6   ----- 
Sat 00:07  SSW 37/ 46   9.2  8.3  1009.8    3.8   0.2  ----   0.2   ----- 
Sat 00:22  SSW 46/ 65   9.5  6.9  1009.8    3.8   0.0  ----   0.0   ----- 
Sat 00:30   SW 46/ 65   9.8  6.9  1009.9    3.8   0.0   1.6   0.0   ----- 
Sat 01:00  SSW 43/ 56  10.5  6.6  1010.4    3.8   0.0   0.2   0.0   ----- 
Sat 01:12   SW 43/ 63  10.3  6.6  1010.5    3.8   0.0  ----   0.0   ----- 
Sat 01:30  SSW 45/ 59  10.3  5.5  1010.7    3.8   0.0   0.0   0.0   ----- 
Sat 01:32  SSW 45/ 63  10.2  5.0  1010.7    3.8   0.0  ----   0.0   ----- 
Sat 02:00   SW 41/ 54  10.1  4.5  1011.1    4.0   0.2   0.2   0.0   ----- 
Sat 02:19   SW 41/ 59  10.3  4.9  1011.2    4.0   0.0  ----   0.0   ----- 
Sat 02:30   SW 43/ 54  10.2  4.8  1011.3    4.0   0.0   0.2   0.0   ----- 
Sat 02:40   SW 39/ 58  10.3  5.1  1011.3    4.0   0.0  ----   0.0   ----- 
Sat 03:00   SW 37/ 52  10.1  6.1  1011.4    4.0   0.0   0.0   0.0   ----- 
Sat 03:18    S 30/ 37   9.8  6.2  1011.4    4.0   0.0   0.0   0.0   ----- 
Sat 03:23  SSW 35/ 56   9.4  4.8  1011.5    4.0   0.0   0.0   0.0   ----- 
Sat 03:30  SSW 39/ 56   9.4  4.6  1011.6    4.0   0.0   0.0   0.0   ----- 

PORTLAND (CASHMORE AIRPORT)

Site: 090171
Alt: 80.9m
12km WNW of PORTLAND


  Time     Wind        Temp  DP   Baro     Rain since   Rain past  Vis(m), Cloud(base in m), Weather
  local        km/h                         9am  last   hr   10m    
Fri 22:00  SSW 28/ 41   9.1  5.1  1010.3    2.6   0.0   0.0   0.0   10000|BR 660 BR1890 BR2220 
Fri 22:01  SSW 28/ 52   8.8  4.6  1010.4    2.6   0.0  ----   0.0   10000|BR 660 BR1890 BR2220 
Fri 22:30  SSW 22/ 35   8.3  6.3  1010.8    3.2   0.6   0.6   0.2   10000|SC 450 BR 780 OC1140 
Fri 23:00  SSW 19/ 37   8.3  5.8  1011.1    3.8   0.6   1.2   0.0   10000|SC 450 SC 690 SC 840 
Fri 23:30  SSW 26/ 41   8.9  3.3  1011.4    3.8   0.0   0.6   0.0   10000|BR1050 BR1320 OC1500 
Sat 00:00  SSW 28/ 43   9.0  1.4  1011.7    3.8   0.0   0.0   0.0   10000|SC 930 BR1200 BR1380 
Sat 00:30  SSW 22/ 39   8.9  1.3  1012.0    3.8   0.0   0.0   0.0   10000|SC 990 BR1200 
Sat 01:00  SSW 26/ 43   9.1  2.7  1012.2    3.8   0.0   0.0   0.0   10000|SC 930 BR1140 BR1410 
Sat 01:30   SW 20/ 30   8.6  2.6  1012.5    3.8   0.0   0.0   0.0   10000|SC1020 SC1230 BR1410 
Sat 02:00  SSW 19/ 30   7.7  3.6  1012.8    3.8   0.0   0.0   0.0   10000|SC 930 SC1110 BR1380 
Sat 02:30  SSW 22/ 33   8.3  3.2  1012.9    4.0   0.2   0.2   0.0   10000|SC1050 BR1380 BR1680 
Sat 02:44   SW 30/ 52   7.8  1.2  1013.0    4.0   0.0  ----   0.0   10000|SC1320 SC1560 BR2280 
Sat 03:00   SW 22/ 37   7.9  2.2  1012.8    4.0   0.0   0.2   0.0   10000|SC1110 SC1380 SC1710 
Sat 03:30  SSW 26/ 43   8.4  1.3  1012.9    4.0   0.0   0.0   0.0   10000|SC1020 

PORTLAND NTC AWS

Site: 090192
Alt: 0.0m
1km ESE of PORTLAND


  Time     Wind        Temp  DP   Baro     Rain since   Rain past  Vis(m), Cloud(base in m), Weather
  local        km/h                         9am  last   hr   10m    
Fri 22:00  SSW 43/ 59  10.2----  1009.6   ----  ----  ----  ----   ----- 
Fri 22:01  SSW 43/ 63  10.3----  1009.6   ----  ----  ----  ----   ----- 
Fri 22:30  SSW 45/ 67   9.8----  1010.2   ----  ----  ----  ----   ----- 
Fri 23:00  SSW 37/ 59   9.4----  1010.5   ----  ----  ----  ----   ----- 
Fri 23:30  SSW 39/ 58  10.2----  1010.7   ----  ----  ----  ----   ----- 
Sat 00:00  SSW 37/ 56  10.5----  1011.1   ----  ----  ----  ----   ----- 
Sat 00:23  SSW 33/ 54  10.5----  1011.3   ----  ----  ----  ----   ----- 
Sat 00:30  SSW 39/ 58  10.5----  1011.5   ----  ----  ----  ----   ----- 
Sat 01:00  SSW 32/ 43  10.3----  1011.7   ----  ----  ----  ----   ----- 
Sat 01:06  SSW 33/ 52  10.5----  1011.7   ----  ----  ----  ----   ----- 
Sat 01:30  SSW 30/ 46  10.3----  1011.9   ----  ----  ----  ----   ----- 
Sat 02:00  SSW 32/ 45  10.3----  1012.2   ----  ----  ----  ----   ----- 
Sat 02:30  SSW 28/ 41  10.1----  1012.3   ----  ----  ----  ----   ----- 
Sat 02:47   SW 30/ 50   9.2----  1012.5   ----  ----  ----  ----   ----- 
Sat 03:00   SW 26/ 41   9.3----  1012.3   ----  ----  ----  ----   ----- 
Sat 03:05   SW 28/ 50   9.3----  1012.4   ----  ----  ----  ----   ----- 
Sat 03:30   SW 24/ 43   9.7----  1012.4   ----   0.0   0.0  ----   ----- 
Sat 03:32   SW 28/ 50   9.9----  1012.5   ----   0.0   0.0  ----   ----- 

WARRNAMBOOL AIRPORT NDB

Site: 090186
Alt: 70.8m
11km NNW of WARRNAMBOOL


  Time     Wind        Temp  DP   Baro     Rain since   Rain past  Vis(m), Cloud(base in m), Weather
  local        km/h                         9am  last   hr   10m    
Fri 22:00    W 15/ 22   6.4  6.3  1008.0    6.4   0.0   0.2   0.0   10000|SC 660 SC 930 SC1200 
Fri 22:01    W 15/ 22   6.5  6.4  1008.0    6.4   0.0  ----   0.0   10000|SC 660 SC 930 SC1200 
Fri 22:08  WSW 17/ 43   7.3  7.2  1008.1    6.8   0.4  ----   0.4    5000|SC 660 SC 840 BR 990 
Fri 22:17  SSW 37/ 50   7.7  7.0  1008.3    7.4   0.6  ----   0.8    2900|SC 450 SC 840 BR 990 
Fri 22:22  SSW 39/ 59   7.2  6.1  1008.5    7.4   0.0  ----   0.2    4700|SC 450 SC 840 BR1080 
Fri 22:30  SSW 39/ 61   7.1  6.0  1008.7    8.0   0.6   1.8   0.6    3600|SC 450 SC 870 BR1020 
Fri 22:47  SSW 20/ 30   7.6  7.2  1008.5    8.0   0.0  ----   0.0    8000|SC 450 SC 690 BR 840 
Fri 22:53  SSW 28/ 50   8.5  7.7  1008.5    8.0   0.0  ----   0.0    8000|SC 450 BR 780 BR1080 
Fri 23:00  SSW 39/ 58   8.7  7.8  1008.7    8.2   0.2   1.8   0.2    8000|SC 510 BR 780 BR1080 
Fri 23:03  SSW 41/ 58   8.4  7.8  1008.8    8.2   0.0  ----   0.2    5000|SC 510 BR 690 BR 900 
Fri 23:24  SSW 35/ 56   8.1  8.0  1009.0    8.4   0.2  ----   0.0    8000|BR 480 BR 690 OC1140 
Fri 23:30  SSW 43/ 59   7.6  7.5  1009.0    8.8   0.4   0.8   0.4    3100|SC 420 BR 660 OC1170 
Fri 23:47  SSW 43/ 58   8.6  8.5  1009.1    9.0   0.2  ----   0.2    8000|SC 450 BR 600 BR 810 
Fri 23:49  SSW 45/ 70   8.2  7.9  1009.1    9.0   0.0  ----   0.2    8000|BR 540 BR 720 BR 900 
Sat 00:00  SSW 48/ 67   7.7  7.3  1009.5    9.0   0.0   0.8   0.0    6000|SC 540 BR 780 BR1200 
Sat 00:01  SSW 48/ 67   7.8  7.4  1009.5    9.2   0.2  ----   0.2    5000|SC 540 BR 780 OC1200 
Sat 00:30   SW 32/ 45   7.9  7.6  1009.7    9.8   0.6   1.0   0.2    7000|SC 540 SC 810 BR1020 
Sat 00:33   SW 32/ 45   8.2  7.9  1009.7    9.8   0.0  ----   0.0    8000|SC 540 BR 870 BR1020 
Sat 00:36  SSW 32/ 45   8.3  8.2  1009.7   10.0   0.2  ----   0.2    5000|SC 540 BR 870 BR1020 
Sat 00:45  SSW 33/ 61   8.2  7.8  1009.8   10.0   0.0  ----   0.0    7000|SC 540 SC 690 BR 870 
Sat 00:53  SSW 41/ 61   8.3  7.2  1009.9   10.0   0.0  ----   0.0    9000|SC 660 BR 930 BR1290 
Sat 01:00   SW 41/ 52   8.6  7.2  1009.8   10.0   0.0   1.0   0.0    8000|SC 690 SC1170 BR1470 
Sat 01:09   SW 46/ 65   8.9  7.4  1009.9   10.0   0.0  ----   0.0    8000|SC 750 BR1230 BR1470 
Sat 01:27   SW 45/ 58   8.8  7.4  1010.1   10.0   0.0  ----   0.0    5000|BR 750 BR 960 OC1530 
Sat 01:30   SW 46/ 61   8.7  7.3  1010.1   10.2   0.2   0.4   0.2    6000|BR 750 BR 960 OC1530 
Sat 01:36   SW 43/ 61   8.7  7.3  1010.2   10.2   0.0  ----   0.2    7000|BR 750 BR 960 BR1440 
Sat 01:39   SW 41/ 61   8.5  7.1  1010.3   10.2   0.0  ----   0.0   10000|SC 750 BR 960 BR1350 
Sat 02:00   SW 48/ 59   8.7  6.0  1010.6   10.2   0.0   0.2   0.0    6000|SC 780 SC 900 BR1080 
Sat 02:30   SW 41/ 54   8.8  5.7  1010.9   10.2   0.0   0.0   0.0   10000|SC 990 SC1170 OC1500 
Sat 03:00   SW 39/ 52   8.4  5.0  1011.1   10.2   0.0   0.0   0.0    8000|SC 900 SC1080 SC1350 
Sat 03:30   SW 37/ 52   8.5  5.3  1011.3   10.2   0.0   0.0   0.0    8000|SC 960 BR1200 OC1650